This is the latest recevied weather packets stored in our database for station/object WX5RP. If no packets are shown the sender has not sent any weather packets the latest 1 day(s).
| Time | Temp. | Humidity | Pressure | Rain* | Wind** | Luminosity | Snow |
|---|---|---|---|---|---|---|---|
| 1778024715 | 22.78° C | 33% | 1013.4 hPa | 0 mm | 4.47 m/s, 0° | 215 W/m² | - |
| 1778024116 | 23.89° C | 32% | 1013.1 hPa | 0 mm | 4.92 m/s, 0° | 458 W/m² | - |
| 1778023515 | 23.33° C | 32% | 1013.5 hPa | 0 mm | 4.47 m/s, 0° | 747 W/m² | - |
| 1778022916 | 22.22° C | 36% | 1013.2 hPa | 0 mm | 5.36 m/s, 23° | 276 W/m² | - |
| 1778022315 | 23.33° C | 34% | 1013.5 hPa | 0 mm | 5.36 m/s, 23° | 851 W/m² | - |
| 1778021715 | 22.22° C | 34% | 1013.4 hPa | 0 mm | 5.81 m/s, 23° | 362 W/m² | - |
| 1778021115 | 23.89° C | 31% | 1013.7 hPa | 0 mm | 4.92 m/s, 23° | 245 W/m² | - |
| 1778020515 | 23.89° C | 27% | 1014 hPa | 0 mm | 4.92 m/s, 338° | 1014 W/m² | - |
| 1778019915 | 22.78° C | 33% | 1014.3 hPa | 0 mm | 3.58 m/s, 338° | 345 W/m² | - |
| 1778019315 | 21.67° C | 35% | 1014 hPa | 0 mm | 4.47 m/s, 23° | 276 W/m² | - |
| 1778018718 | 22.22° C | 35% | 1013.5 hPa | 0 mm | 4.02 m/s, 23° | 283 W/m² | - |
| 1778018126 | 22.78° C | 32% | 1014.3 hPa | 0 mm | 2.68 m/s, 23° | 350 W/m² | - |
| 1778017517 | 21.67° C | 32% | 1014 hPa | 0 mm | 4.02 m/s, 0° | 479 W/m² | - |
| 1778016917 | 22.22° C | 33% | 1014 hPa | 0 mm | 4.02 m/s, 0° | 298 W/m² | - |
| 1778016317 | 22.78° C | 33% | 1013.7 hPa | 0 mm | 3.58 m/s, 0° | 362 W/m² | - |
| 1778015717 | 23.33° C | 30% | 1013.9 hPa | 0 mm | 3.13 m/s, 0° | 435 W/m² | - |
| 1778015117 | 24.44° C | 27% | 1013.9 hPa | 0 mm | 3.58 m/s, 23° | 1210 W/m² | - |
| 1778014517 | 23.33° C | 30% | 1014.2 hPa | 0 mm | 3.13 m/s, 0° | 1116 W/m² | - |
| 1778013918 | 23.33° C | 32% | 1014.3 hPa | 0 mm | 4.92 m/s, 23° | 1162 W/m² | - |
| 1778013317 | 23.89° C | 29% | 1014.2 hPa | 0 mm | 2.68 m/s, 0° | 1250 W/m² | - |
| 1778012717 | 21.67° C | 30% | 1014.2 hPa | 0 mm | 4.02 m/s, 338° | 1111 W/m² | - |
| 1778012116 | 21.67° C | 35% | 1014.3 hPa | 0 mm | 4.02 m/s, 0° | 187 W/m² | - |
| 1778011517 | 22.78° C | 35% | 1014 hPa | 0 mm | 4.92 m/s, 23° | 450 W/m² | - |
| 1778010916 | 22.22° C | 29% | 1014 hPa | 0 mm | 3.58 m/s, 23° | 1056 W/m² | - |
| 1778010317 | 22.78° C | 29% | 1014 hPa | 0 mm | 4.92 m/s, 338° | 720 W/m² | - |
* Rain latest hour (hover to see other rain measurements)
** Current wind speed in m/s (hover to see current wind gust speed)